aviador You're here:

KLQK Decoded Metar

in
Report Time2017-07-22 10:35:00
UTC Time2017-07-22 10:37:34
Flight Rules ifr IFR
WindCalm
Visibility2414 m
Phenomena:Mist
Clouds:N/A
Ceiling700 ft
Temp21°C
Dew Point21°C (100% RH)
QNH1016 hPa
Raw Report
KLQK 221035Z AUTO 00000KT 1 1/2SM BR VV007 21/21 A3000 RMK AO2
T02120211=

Extra information for KLQK:More info

Social comments